sensor_id;sensor_type;location;lat;lon;timestamp;temperature;humidity
52203;DHT22;38173;52.850;6.970;2022-07-09T00:01:38;15.90;99.90
52203;DHT22;38173;52.850;6.970;2022-07-09T00:04:10;15.80;99.90
52203;DHT22;38173;52.850;6.970;2022-07-09T00:06:36;15.80;99.90
52203;DHT22;38173;52.850;6.970;2022-07-09T00:09:01;15.80;99.90
52203;DHT22;38173;52.850;6.970;2022-07-09T00:11:27;15.80;99.90
52203;DHT22;38173;52.850;6.970;2022-07-09T00:13:53;15.80;99.90
52203;DHT22;38173;52.850;6.970;2022-07-09T00:16:18;15.70;99.90
52203;DHT22;38173;52.850;6.970;2022-07-09T00:18:44;15.70;99.90
52203;DHT22;38173;52.850;6.970;2022-07-09T00:21:10;15.70;99.90
52203;DHT22;38173;52.850;6.970;2022-07-09T00:23:35;15.60;99.90
52203;DHT22;38173;52.850;6.970;2022-07-09T00:26:01;15.60;99.90
52203;DHT22;38173;52.850;6.970;2022-07-09T00:28:27;15.60;99.90
52203;DHT22;38173;52.850;6.970;2022-07-09T00:30:53;15.60;99.90
52203;DHT22;38173;52.850;6.970;2022-07-09T00:33:19;15.50;99.90
52203;DHT22;38173;52.850;6.970;2022-07-09T00:35:44;15.50;99.90
52203;DHT22;38173;52.850;6.970;2022-07-09T00:38:10;15.50;99.90
52203;DHT22;38173;52.850;6.970;2022-07-09T00:40:36;15.50;99.90
52203;DHT22;38173;52.850;6.970;2022-07-09T00:43:02;15.40;99.90
52203;DHT22;38173;52.850;6.970;2022-07-09T00:45:27;15.40;99.90
52203;DHT22;38173;52.850;6.970;2022-07-09T00:47:53;15.40;99.90
52203;DHT22;38173;52.850;6.970;2022-07-09T00:50:20;15.40;99.90
52203;DHT22;38173;52.850;6.970;2022-07-09T00:52:47;15.30;99.90
52203;DHT22;38173;52.850;6.970;2022-07-09T00:55:13;15.30;99.90
52203;DHT22;38173;52.850;6.970;2022-07-09T00:57:40;15.30;99.90
52203;DHT22;38173;52.850;6.970;2022-07-09T01:00:06;15.30;99.90
52203;DHT22;38173;52.850;6.970;2022-07-09T01:02:34;15.30;99.90
52203;DHT22;38173;52.850;6.970;2022-07-09T01:05:00;15.30;99.90
52203;DHT22;38173;52.850;6.970;2022-07-09T01:07:25;15.30;99.90
52203;DHT22;38173;52.850;6.970;2022-07-09T01:09:51;15.30;99.90
52203;DHT22;38173;52.850;6.970;2022-07-09T01:12:17;15.30;99.90
52203;DHT22;38173;52.850;6.970;2022-07-09T01:14:42;15.30;99.90
52203;DHT22;38173;52.850;6.970;2022-07-09T01:17:08;15.30;99.90
52203;DHT22;38173;52.850;6.970;2022-07-09T01:19:34;15.30;99.90
52203;DHT22;38173;52.850;6.970;2022-07-09T01:22:01;15.30;99.90
52203;DHT22;38173;52.850;6.970;2022-07-09T01:24:26;15.40;99.90
52203;DHT22;38173;52.850;6.970;2022-07-09T01:26:53;15.30;99.90
52203;DHT22;38173;52.850;6.970;2022-07-09T01:29:20;15.40;99.90
52203;DHT22;38173;52.850;6.970;2022-07-09T01:31:45;15.30;99.90
52203;DHT22;38173;52.850;6.970;2022-07-09T01:34:11;15.20;99.90
52203;DHT22;38173;52.850;6.970;2022-07-09T01:36:37;15.30;99.90
52203;DHT22;38173;52.850;6.970;2022-07-09T01:39:03;15.20;99.90
52203;DHT22;38173;52.850;6.970;2022-07-09T01:41:29;15.20;99.90
52203;DHT22;38173;52.850;6.970;2022-07-09T01:43:56;15.20;99.90
52203;DHT22;38173;52.850;6.970;2022-07-09T01:46:22;15.20;99.90
52203;DHT22;38173;52.850;6.970;2022-07-09T01:48:47;15.10;99.90
52203;DHT22;38173;52.850;6.970;2022-07-09T01:51:13;15.10;99.90
52203;DHT22;38173;52.850;6.970;2022-07-09T01:53:39;15.10;99.90
52203;DHT22;38173;52.850;6.970;2022-07-09T01:56:09;15.10;99.90
52203;DHT22;38173;52.850;6.970;2022-07-09T01:58:35;15.10;99.90
52203;DHT22;38173;52.850;6.970;2022-07-09T02:01:02;15.20;99.90
52203;DHT22;38173;52.850;6.970;2022-07-09T02:03:28;15.20;99.90
52203;DHT22;38173;52.850;6.970;2022-07-09T02:05:54;15.20;99.90
52203;DHT22;38173;52.850;6.970;2022-07-09T02:08:20;15.20;99.90
52203;DHT22;38173;52.850;6.970;2022-07-09T02:10:45;15.20;99.90
52203;DHT22;38173;52.850;6.970;2022-07-09T02:13:12;15.20;99.90
52203;DHT22;38173;52.850;6.970;2022-07-09T02:15:38;15.20;99.90
52203;DHT22;38173;52.850;6.970;2022-07-09T02:18:04;15.20;99.90
52203;DHT22;38173;52.850;6.970;2022-07-09T02:20:30;15.20;99.90
52203;DHT22;38173;52.850;6.970;2022-07-09T02:22:56;15.20;99.90
52203;DHT22;38173;52.850;6.970;2022-07-09T02:25:22;15.20;99.90
52203;DHT22;38173;52.850;6.970;2022-07-09T02:27:47;15.20;99.90
52203;DHT22;38173;52.850;6.970;2022-07-09T02:30:13;15.20;99.90
52203;DHT22;38173;52.850;6.970;2022-07-09T02:32:39;15.30;99.90
52203;DHT22;38173;52.850;6.970;2022-07-09T02:35:05;15.30;99.90
52203;DHT22;38173;52.850;6.970;2022-07-09T02:37:31;15.20;99.90
52203;DHT22;38173;52.850;6.970;2022-07-09T02:39:57;15.30;99.90
52203;DHT22;38173;52.850;6.970;2022-07-09T02:42:23;15.30;99.90
52203;DHT22;38173;52.850;6.970;2022-07-09T02:44:49;15.30;99.90
52203;DHT22;38173;52.850;6.970;2022-07-09T02:47:15;15.30;99.90
52203;DHT22;38173;52.850;6.970;2022-07-09T02:49:41;15.30;99.90
52203;DHT22;38173;52.850;6.970;2022-07-09T02:52:07;15.30;99.90
52203;DHT22;38173;52.850;6.970;2022-07-09T02:54:33;15.30;99.90
52203;DHT22;38173;52.850;6.970;2022-07-09T02:57:00;15.20;99.90
52203;DHT22;38173;52.850;6.970;2022-07-09T02:59:26;15.30;99.90
52203;DHT22;38173;52.850;6.970;2022-07-09T03:01:52;15.30;99.90
52203;DHT22;38173;52.850;6.970;2022-07-09T03:04:17;15.30;99.90
52203;DHT22;38173;52.850;6.970;2022-07-09T03:06:43;15.30;99.90
52203;DHT22;38173;52.850;6.970;2022-07-09T03:09:09;15.30;99.90
52203;DHT22;38173;52.850;6.970;2022-07-09T03:11:35;15.30;99.90
52203;DHT22;38173;52.850;6.970;2022-07-09T03:14:00;15.30;99.90
52203;DHT22;38173;52.850;6.970;2022-07-09T03:16:26;15.30;99.90
52203;DHT22;38173;52.850;6.970;2022-07-09T03:18:52;15.30;99.90
52203;DHT22;38173;52.850;6.970;2022-07-09T03:21:18;15.30;99.90
52203;DHT22;38173;52.850;6.970;2022-07-09T03:23:43;15.30;99.90
52203;DHT22;38173;52.850;6.970;2022-07-09T03:26:09;15.20;99.90
52203;DHT22;38173;52.850;6.970;2022-07-09T03:28:35;15.30;99.90
52203;DHT22;38173;52.850;6.970;2022-07-09T03:31:01;15.30;99.90
52203;DHT22;38173;52.850;6.970;2022-07-09T03:33:27;15.30;99.90
52203;DHT22;38173;52.850;6.970;2022-07-09T03:35:54;15.30;99.90
52203;DHT22;38173;52.850;6.970;2022-07-09T03:38:21;15.40;99.90
52203;DHT22;38173;52.850;6.970;2022-07-09T03:40:47;15.40;99.90
52203;DHT22;38173;52.850;6.970;2022-07-09T03:43:13;15.30;99.90
52203;DHT22;38173;52.850;6.970;2022-07-09T03:45:39;15.30;99.90
52203;DHT22;38173;52.850;6.970;2022-07-09T03:48:05;15.30;99.90
52203;DHT22;38173;52.850;6.970;2022-07-09T03:50:31;15.30;99.90
52203;DHT22;38173;52.850;6.970;2022-07-09T03:52:57;15.20;99.90
52203;DHT22;38173;52.850;6.970;2022-07-09T03:55:23;15.30;99.90
52203;DHT22;38173;52.850;6.970;2022-07-09T03:57:49;15.20;99.90
52203;DHT22;38173;52.850;6.970;2022-07-09T04:00:15;15.20;99.90
52203;DHT22;38173;52.850;6.970;2022-07-09T04:02:41;15.20;99.90
52203;DHT22;38173;52.850;6.970;2022-07-09T04:05:07;15.20;99.90
52203;DHT22;38173;52.850;6.970;2022-07-09T04:07:34;15.20;99.90
52203;DHT22;38173;52.850;6.970;2022-07-09T04:10:00;15.20;99.90
52203;DHT22;38173;52.850;6.970;2022-07-09T04:12:26;15.20;99.90
52203;DHT22;38173;52.850;6.970;2022-07-09T04:14:52;15.20;99.90
52203;DHT22;38173;52.850;6.970;2022-07-09T04:17:18;15.20;99.90
52203;DHT22;38173;52.850;6.970;2022-07-09T04:19:43;15.30;99.90
52203;DHT22;38173;52.850;6.970;2022-07-09T04:22:09;15.30;99.90
52203;DHT22;38173;52.850;6.970;2022-07-09T04:24:34;15.40;99.90
52203;DHT22;38173;52.850;6.970;2022-07-09T04:27:00;15.30;99.90
52203;DHT22;38173;52.850;6.970;2022-07-09T04:29:26;15.40;99.90
52203;DHT22;38173;52.850;6.970;2022-07-09T04:31:51;15.40;99.90
52203;DHT22;38173;52.850;6.970;2022-07-09T04:34:17;15.40;99.90
52203;DHT22;38173;52.850;6.970;2022-07-09T04:36:43;15.40;99.90
52203;DHT22;38173;52.850;6.970;2022-07-09T04:39:09;15.50;99.90
52203;DHT22;38173;52.850;6.970;2022-07-09T04:41:35;15.50;99.90
52203;DHT22;38173;52.850;6.970;2022-07-09T04:44:02;15.50;99.90
52203;DHT22;38173;52.850;6.970;2022-07-09T04:46:28;15.50;99.90
52203;DHT22;38173;52.850;6.970;2022-07-09T04:48:56;15.50;99.90
52203;DHT22;38173;52.850;6.970;2022-07-09T04:51:22;15.50;99.90
52203;DHT22;38173;52.850;6.970;2022-07-09T04:53:47;15.60;99.90
52203;DHT22;38173;52.850;6.970;2022-07-09T04:56:13;15.60;99.90
52203;DHT22;38173;52.850;6.970;2022-07-09T04:58:39;15.70;99.90
52203;DHT22;38173;52.850;6.970;2022-07-09T05:01:18;15.70;99.90
52203;DHT22;38173;52.850;6.970;2022-07-09T05:03:43;15.70;99.90
52203;DHT22;38173;52.850;6.970;2022-07-09T05:06:10;15.80;99.90
52203;DHT22;38173;52.850;6.970;2022-07-09T05:08:35;15.80;99.90
52203;DHT22;38173;52.850;6.970;2022-07-09T05:11:01;15.80;99.90
52203;DHT22;38173;52.850;6.970;2022-07-09T05:13:27;15.80;99.90
52203;DHT22;38173;52.850;6.970;2022-07-09T05:15:52;15.80;99.90
52203;DHT22;38173;52.850;6.970;2022-07-09T05:18:18;15.90;99.90
52203;DHT22;38173;52.850;6.970;2022-07-09T05:20:47;16.00;99.90
52203;DHT22;38173;52.850;6.970;2022-07-09T05:23:12;16.00;99.90
52203;DHT22;38173;52.850;6.970;2022-07-09T05:25:38;16.10;99.90
52203;DHT22;38173;52.850;6.970;2022-07-09T05:28:04;16.20;99.90
52203;DHT22;38173;52.850;6.970;2022-07-09T05:30:29;16.20;99.90
52203;DHT22;38173;52.850;6.970;2022-07-09T05:32:55;16.20;99.90
52203;DHT22;38173;52.850;6.970;2022-07-09T05:35:21;16.30;99.90
52203;DHT22;38173;52.850;6.970;2022-07-09T05:37:47;16.30;99.90
52203;DHT22;38173;52.850;6.970;2022-07-09T05:40:12;16.40;99.90
52203;DHT22;38173;52.850;6.970;2022-07-09T05:42:38;16.40;99.90
52203;DHT22;38173;52.850;6.970;2022-07-09T05:45:05;16.50;99.90
52203;DHT22;38173;52.850;6.970;2022-07-09T05:47:31;16.60;99.90
52203;DHT22;38173;52.850;6.970;2022-07-09T05:49:57;16.70;99.90
52203;DHT22;38173;52.850;6.970;2022-07-09T05:52:22;16.80;99.90
52203;DHT22;38173;52.850;6.970;2022-07-09T05:54:48;17.00;99.90
52203;DHT22;38173;52.850;6.970;2022-07-09T05:57:14;17.00;99.90
52203;DHT22;38173;52.850;6.970;2022-07-09T05:59:39;17.00;99.90
52203;DHT22;38173;52.850;6.970;2022-07-09T06:02:06;17.10;99.90
52203;DHT22;38173;52.850;6.970;2022-07-09T06:04:32;17.20;99.90
52203;DHT22;38173;52.850;6.970;2022-07-09T06:06:57;17.30;99.90
52203;DHT22;38173;52.850;6.970;2022-07-09T06:09:23;17.30;99.90
52203;DHT22;38173;52.850;6.970;2022-07-09T06:11:49;17.30;99.90
52203;DHT22;38173;52.850;6.970;2022-07-09T06:14:15;17.40;99.90
52203;DHT22;38173;52.850;6.970;2022-07-09T06:16:41;17.40;99.90
52203;DHT22;38173;52.850;6.970;2022-07-09T06:19:06;17.50;99.90
52203;DHT22;38173;52.850;6.970;2022-07-09T06:21:32;17.50;99.90
52203;DHT22;38173;52.850;6.970;2022-07-09T06:23:58;17.60;99.90
52203;DHT22;38173;52.850;6.970;2022-07-09T06:26:24;17.70;99.90
52203;DHT22;38173;52.850;6.970;2022-07-09T06:28:49;17.80;99.90
52203;DHT22;38173;52.850;6.970;2022-07-09T06:31:15;17.80;99.90
52203;DHT22;38173;52.850;6.970;2022-07-09T06:33:41;17.90;99.90
52203;DHT22;38173;52.850;6.970;2022-07-09T06:36:06;17.90;99.90
52203;DHT22;38173;52.850;6.970;2022-07-09T06:38:32;17.90;99.90
52203;DHT22;38173;52.850;6.970;2022-07-09T06:41:18;17.90;99.90
52203;DHT22;38173;52.850;6.970;2022-07-09T06:43:43;17.90;99.90
52203;DHT22;38173;52.850;6.970;2022-07-09T06:46:09;18.00;99.90
52203;DHT22;38173;52.850;6.970;2022-07-09T06:48:35;18.00;99.90
52203;DHT22;38173;52.850;6.970;2022-07-09T06:51:00;18.00;99.90
52203;DHT22;38173;52.850;6.970;2022-07-09T06:53:26;18.00;99.90
52203;DHT22;38173;52.850;6.970;2022-07-09T06:55:52;18.00;99.90
52203;DHT22;38173;52.850;6.970;2022-07-09T06:58:17;18.10;99.90
52203;DHT22;38173;52.850;6.970;2022-07-09T07:00:43;18.20;99.90
52203;DHT22;38173;52.850;6.970;2022-07-09T07:03:09;18.20;99.90
52203;DHT22;38173;52.850;6.970;2022-07-09T07:05:34;18.30;99.90
52203;DHT22;38173;52.850;6.970;2022-07-09T07:08:00;18.40;99.90
52203;DHT22;38173;52.850;6.970;2022-07-09T07:10:26;18.40;99.90
52203;DHT22;38173;52.850;6.970;2022-07-09T07:12:51;18.40;99.90
52203;DHT22;38173;52.850;6.970;2022-07-09T07:15:19;18.40;99.90
52203;DHT22;38173;52.850;6.970;2022-07-09T07:17:44;18.40;99.90
52203;DHT22;38173;52.850;6.970;2022-07-09T07:20:10;18.40;99.90
52203;DHT22;38173;52.850;6.970;2022-07-09T07:22:36;18.40;99.90
52203;DHT22;38173;52.850;6.970;2022-07-09T07:25:02;18.30;99.90
52203;DHT22;38173;52.850;6.970;2022-07-09T07:27:27;18.40;99.90
52203;DHT22;38173;52.850;6.970;2022-07-09T07:29:53;18.50;99.90
52203;DHT22;38173;52.850;6.970;2022-07-09T07:32:19;18.50;99.90
52203;DHT22;38173;52.850;6.970;2022-07-09T07:34:44;18.50;99.90
52203;DHT22;38173;52.850;6.970;2022-07-09T07:37:10;18.50;99.90
52203;DHT22;38173;52.850;6.970;2022-07-09T07:39:36;18.50;99.90
52203;DHT22;38173;52.850;6.970;2022-07-09T07:42:02;18.50;99.90
52203;DHT22;38173;52.850;6.970;2022-07-09T07:44:27;18.50;99.90
52203;DHT22;38173;52.850;6.970;2022-07-09T07:46:54;18.60;99.90
52203;DHT22;38173;52.850;6.970;2022-07-09T07:49:20;18.60;99.90
52203;DHT22;38173;52.850;6.970;2022-07-09T07:51:46;18.70;99.90
52203;DHT22;38173;52.850;6.970;2022-07-09T07:54:12;18.70;99.90
52203;DHT22;38173;52.850;6.970;2022-07-09T07:56:37;18.70;99.90
52203;DHT22;38173;52.850;6.970;2022-07-09T07:59:05;18.80;99.90
52203;DHT22;38173;52.850;6.970;2022-07-09T08:01:30;18.90;99.90
52203;DHT22;38173;52.850;6.970;2022-07-09T08:03:56;19.00;99.90
52203;DHT22;38173;52.850;6.970;2022-07-09T08:06:22;19.00;99.90
52203;DHT22;38173;52.850;6.970;2022-07-09T08:08:48;19.10;99.90
52203;DHT22;38173;52.850;6.970;2022-07-09T08:11:13;19.10;99.90
52203;DHT22;38173;52.850;6.970;2022-07-09T08:13:40;19.10;99.90
52203;DHT22;38173;52.850;6.970;2022-07-09T08:16:06;19.20;99.90
52203;DHT22;38173;52.850;6.970;2022-07-09T08:18:32;19.20;99.90
52203;DHT22;38173;52.850;6.970;2022-07-09T08:20:57;19.20;99.90
52203;DHT22;38173;52.850;6.970;2022-07-09T08:23:23;19.20;99.90
52203;DHT22;38173;52.850;6.970;2022-07-09T08:25:49;19.30;99.90
52203;DHT22;38173;52.850;6.970;2022-07-09T08:28:15;19.50;99.90
52203;DHT22;38173;52.850;6.970;2022-07-09T08:30:41;19.60;99.90
52203;DHT22;38173;52.850;6.970;2022-07-09T08:33:07;19.60;99.90
52203;DHT22;38173;52.850;6.970;2022-07-09T08:35:33;19.70;99.90
52203;DHT22;38173;52.850;6.970;2022-07-09T08:37:59;19.90;99.90
52203;DHT22;38173;52.850;6.970;2022-07-09T08:40:28;20.10;99.90
52203;DHT22;38173;52.850;6.970;2022-07-09T08:42:56;20.10;99.90
52203;DHT22;38173;52.850;6.970;2022-07-09T08:45:23;20.20;99.90
52203;DHT22;38173;52.850;6.970;2022-07-09T08:47:52;20.20;99.90
52203;DHT22;38173;52.850;6.970;2022-07-09T08:50:19;20.20;99.90
52203;DHT22;38173;52.850;6.970;2022-07-09T08:52:46;20.30;99.90
52203;DHT22;38173;52.850;6.970;2022-07-09T08:55:12;20.50;99.90
52203;DHT22;38173;52.850;6.970;2022-07-09T08:57:38;20.70;99.90
52203;DHT22;38173;52.850;6.970;2022-07-09T09:00:05;20.80;99.90
52203;DHT22;38173;52.850;6.970;2022-07-09T09:02:37;20.90;99.90
52203;DHT22;38173;52.850;6.970;2022-07-09T09:05:14;20.90;99.90
52203;DHT22;38173;52.850;6.970;2022-07-09T09:07:40;21.00;99.90
52203;DHT22;38173;52.850;6.970;2022-07-09T09:10:06;21.00;99.90
52203;DHT22;38173;52.850;6.970;2022-07-09T09:12:32;21.10;99.90
52203;DHT22;38173;52.850;6.970;2022-07-09T09:14:58;21.20;99.90
52203;DHT22;38173;52.850;6.970;2022-07-09T09:17:24;21.20;99.90
52203;DHT22;38173;52.850;6.970;2022-07-09T09:19:49;21.20;99.90
52203;DHT22;38173;52.850;6.970;2022-07-09T09:22:17;21.10;99.90
52203;DHT22;38173;52.850;6.970;2022-07-09T09:24:43;21.00;99.90
52203;DHT22;38173;52.850;6.970;2022-07-09T09:27:08;20.90;99.90
52203;DHT22;38173;52.850;6.970;2022-07-09T09:29:34;21.00;99.90
52203;DHT22;38173;52.850;6.970;2022-07-09T09:32:12;21.10;99.90
52203;DHT22;38173;52.850;6.970;2022-07-09T09:34:38;21.30;99.90
52203;DHT22;38173;52.850;6.970;2022-07-09T09:37:07;21.40;99.90
52203;DHT22;38173;52.850;6.970;2022-07-09T09:39:34;21.50;99.90
52203;DHT22;38173;52.850;6.970;2022-07-09T09:42:02;21.40;99.90
52203;DHT22;38173;52.850;6.970;2022-07-09T09:44:29;21.40;99.90
52203;DHT22;38173;52.850;6.970;2022-07-09T09:46:57;21.40;99.90
52203;DHT22;38173;52.850;6.970;2022-07-09T09:49:24;21.40;99.90
52203;DHT22;38173;52.850;6.970;2022-07-09T09:54:24;21.60;99.90
52203;DHT22;38173;52.850;6.970;2022-07-09T09:56:50;21.70;99.90
52203;DHT22;38173;52.850;6.970;2022-07-09T09:59:16;21.70;99.90
52203;DHT22;38173;52.850;6.970;2022-07-09T10:01:43;21.60;99.90
52203;DHT22;38173;52.850;6.970;2022-07-09T10:04:10;21.50;99.90
52203;DHT22;38173;52.850;6.970;2022-07-09T10:06:37;21.40;99.90
52203;DHT22;38173;52.850;6.970;2022-07-09T10:09:04;21.30;99.90
52203;DHT22;38173;52.850;6.970;2022-07-09T10:11:43;21.20;99.90
52203;DHT22;38173;52.850;6.970;2022-07-09T10:14:30;21.20;99.90
52203;DHT22;38173;52.850;6.970;2022-07-09T10:16:56;21.40;99.90
52203;DHT22;38173;52.850;6.970;2022-07-09T10:19:30;21.40;99.90
52203;DHT22;38173;52.850;6.970;2022-07-09T10:21:59;21.50;99.90
52203;DHT22;38173;52.850;6.970;2022-07-09T10:24:27;21.50;99.90
52203;DHT22;38173;52.850;6.970;2022-07-09T10:27:06;21.60;99.90
52203;DHT22;38173;52.850;6.970;2022-07-09T10:29:34;21.70;99.90
52203;DHT22;38173;52.850;6.970;2022-07-09T10:32:00;21.80;99.90
52203;DHT22;38173;52.850;6.970;2022-07-09T10:36:59;21.80;99.90
52203;DHT22;38173;52.850;6.970;2022-07-09T10:39:25;21.60;99.90
52203;DHT22;38173;52.850;6.970;2022-07-09T10:42:17;21.40;99.90
52203;DHT22;38173;52.850;6.970;2022-07-09T10:44:44;21.40;99.90
52203;DHT22;38173;52.850;6.970;2022-07-09T10:47:11;21.40;99.90
52203;DHT22;38173;52.850;6.970;2022-07-09T10:49:37;21.50;99.90
52203;DHT22;38173;52.850;6.970;2022-07-09T10:52:06;21.70;99.90
52203;DHT22;38173;52.850;6.970;2022-07-09T10:54:32;22.20;99.90
52203;DHT22;38173;52.850;6.970;2022-07-09T10:56:58;22.30;99.90
52203;DHT22;38173;52.850;6.970;2022-07-09T10:59:25;22.40;99.90
52203;DHT22;38173;52.850;6.970;2022-07-09T11:01:51;22.30;99.90
52203;DHT22;38173;52.850;6.970;2022-07-09T11:04:28;22.20;99.90
52203;DHT22;38173;52.850;6.970;2022-07-09T11:06:54;22.00;99.90
52203;DHT22;38173;52.850;6.970;2022-07-09T11:09:20;21.80;99.90
52203;DHT22;38173;52.850;6.970;2022-07-09T11:11:46;21.70;99.90
52203;DHT22;38173;52.850;6.970;2022-07-09T11:14:13;21.80;99.90
52203;DHT22;38173;52.850;6.970;2022-07-09T11:16:39;22.10;99.90
52203;DHT22;38173;52.850;6.970;2022-07-09T11:19:14;22.30;99.90
52203;DHT22;38173;52.850;6.970;2022-07-09T11:21:39;22.60;99.90
52203;DHT22;38173;52.850;6.970;2022-07-09T11:24:16;22.70;99.90
52203;DHT22;38173;52.850;6.970;2022-07-09T11:26:42;22.60;99.90
52203;DHT22;38173;52.850;6.970;2022-07-09T11:29:09;22.60;99.90
52203;DHT22;38173;52.850;6.970;2022-07-09T11:31:36;22.60;99.90
52203;DHT22;38173;52.850;6.970;2022-07-09T11:34:03;22.70;99.90
52203;DHT22;38173;52.850;6.970;2022-07-09T11:36:47;22.90;99.90
52203;DHT22;38173;52.850;6.970;2022-07-09T11:39:27;23.00;99.90
52203;DHT22;38173;52.850;6.970;2022-07-09T11:41:54;23.20;99.90
52203;DHT22;38173;52.850;6.970;2022-07-09T11:44:25;23.20;99.90
52203;DHT22;38173;52.850;6.970;2022-07-09T11:49:32;23.10;99.90
52203;DHT22;38173;52.850;6.970;2022-07-09T11:51:58;23.10;99.90
52203;DHT22;38173;52.850;6.970;2022-07-09T11:54:28;22.80;99.90
52203;DHT22;38173;52.850;6.970;2022-07-09T11:56:54;22.60;99.90
52203;DHT22;38173;52.850;6.970;2022-07-09T11:59:30;22.30;99.90
52203;DHT22;38173;52.850;6.970;2022-07-09T12:02:00;21.90;99.90
52203;DHT22;38173;52.850;6.970;2022-07-09T12:04:31;21.70;99.90
52203;DHT22;38173;52.850;6.970;2022-07-09T12:06:57;21.70;99.90
52203;DHT22;38173;52.850;6.970;2022-07-09T12:09:30;21.70;99.90
52203;DHT22;38173;52.850;6.970;2022-07-09T12:11:57;21.70;99.90
52203;DHT22;38173;52.850;6.970;2022-07-09T12:14:23;21.60;99.90
52203;DHT22;38173;52.850;6.970;2022-07-09T12:16:49;21.70;99.90
52203;DHT22;38173;52.850;6.970;2022-07-09T12:19:15;21.80;99.90
52203;DHT22;38173;52.850;6.970;2022-07-09T12:21:41;21.90;99.90
52203;DHT22;38173;52.850;6.970;2022-07-09T12:24:06;21.90;99.90
52203;DHT22;38173;52.850;6.970;2022-07-09T12:26:32;22.00;99.90
52203;DHT22;38173;52.850;6.970;2022-07-09T12:28:58;22.00;99.90
52203;DHT22;38173;52.850;6.970;2022-07-09T12:31:24;22.00;99.90
52203;DHT22;38173;52.850;6.970;2022-07-09T12:33:50;22.00;99.90
52203;DHT22;38173;52.850;6.970;2022-07-09T12:36:15;21.90;99.90
52203;DHT22;38173;52.850;6.970;2022-07-09T12:38:42;21.90;99.90
52203;DHT22;38173;52.850;6.970;2022-07-09T12:41:08;22.10;99.90
52203;DHT22;38173;52.850;6.970;2022-07-09T12:43:34;22.00;99.90
52203;DHT22;38173;52.850;6.970;2022-07-09T12:45:59;22.20;99.90
52203;DHT22;38173;52.850;6.970;2022-07-09T12:48:25;22.50;99.90
52203;DHT22;38173;52.850;6.970;2022-07-09T12:50:51;22.70;99.90
52203;DHT22;38173;52.850;6.970;2022-07-09T12:53:18;22.50;99.90
52203;DHT22;38173;52.850;6.970;2022-07-09T12:55:44;22.50;99.90
52203;DHT22;38173;52.850;6.970;2022-07-09T12:58:10;22.80;99.90
52203;DHT22;38173;52.850;6.970;2022-07-09T13:00:35;23.00;99.90
52203;DHT22;38173;52.850;6.970;2022-07-09T13:03:01;23.20;99.90
52203;DHT22;38173;52.850;6.970;2022-07-09T13:05:26;23.50;99.90
52203;DHT22;38173;52.850;6.970;2022-07-09T13:07:52;23.60;97.50
52203;DHT22;38173;52.850;6.970;2022-07-09T13:10:19;23.60;95.20
52203;DHT22;38173;52.850;6.970;2022-07-09T13:12:45;23.40;91.50
52203;DHT22;38173;52.850;6.970;2022-07-09T13:15:10;23.50;99.00
52203;DHT22;38173;52.850;6.970;2022-07-09T13:17:36;23.40;99.10
52203;DHT22;38173;52.850;6.970;2022-07-09T13:20:03;23.60;98.00
52203;DHT22;38173;52.850;6.970;2022-07-09T13:22:29;23.90;96.00
52203;DHT22;38173;52.850;6.970;2022-07-09T13:24:55;24.00;97.70
52203;DHT22;38173;52.850;6.970;2022-07-09T13:27:20;24.40;92.50
52203;DHT22;38173;52.850;6.970;2022-07-09T13:29:46;24.90;93.60
52203;DHT22;38173;52.850;6.970;2022-07-09T13:32:13;25.00;77.80
52203;DHT22;38173;52.850;6.970;2022-07-09T13:34:39;24.50;91.80
52203;DHT22;38173;52.850;6.970;2022-07-09T13:37:05;24.00;93.80
52203;DHT22;38173;52.850;6.970;2022-07-09T13:39:31;24.10;96.00
52203;DHT22;38173;52.850;6.970;2022-07-09T13:41:56;23.80;85.50
52203;DHT22;38173;52.850;6.970;2022-07-09T13:44:22;23.20;91.00
52203;DHT22;38173;52.850;6.970;2022-07-09T13:46:48;22.90;93.90
52203;DHT22;38173;52.850;6.970;2022-07-09T13:49:13;23.10;98.50
52203;DHT22;38173;52.850;6.970;2022-07-09T13:51:39;23.40;96.00
52203;DHT22;38173;52.850;6.970;2022-07-09T13:54:05;23.70;96.20
52203;DHT22;38173;52.850;6.970;2022-07-09T13:56:31;23.80;80.90
52203;DHT22;38173;52.850;6.970;2022-07-09T13:58:57;23.70;94.00
52203;DHT22;38173;52.850;6.970;2022-07-09T14:01:23;23.90;96.10
52203;DHT22;38173;52.850;6.970;2022-07-09T14:03:49;24.20;92.40
52203;DHT22;38173;52.850;6.970;2022-07-09T14:06:14;24.30;86.30
52203;DHT22;38173;52.850;6.970;2022-07-09T14:08:42;23.90;92.20
52203;DHT22;38173;52.850;6.970;2022-07-09T14:11:08;23.50;92.60
52203;DHT22;38173;52.850;6.970;2022-07-09T14:13:34;22.80;88.70
52203;DHT22;38173;52.850;6.970;2022-07-09T14:16:01;22.40;98.00
52203;DHT22;38173;52.850;6.970;2022-07-09T14:18:27;22.20;98.60
52203;DHT22;38173;52.850;6.970;2022-07-09T14:20:54;22.30;99.90
52203;DHT22;38173;52.850;6.970;2022-07-09T14:23:19;22.80;99.90
52203;DHT22;38173;52.850;6.970;2022-07-09T14:25:46;23.40;97.50
52203;DHT22;38173;52.850;6.970;2022-07-09T14:28:12;23.70;92.90
52203;DHT22;38173;52.850;6.970;2022-07-09T14:30:39;23.60;92.50
52203;DHT22;38173;52.850;6.970;2022-07-09T14:33:04;23.80;83.70
52203;DHT22;38173;52.850;6.970;2022-07-09T14:35:30;24.30;90.10
52203;DHT22;38173;52.850;6.970;2022-07-09T14:37:57;24.80;80.50
52203;DHT22;38173;52.850;6.970;2022-07-09T14:40:23;25.50;79.50
52203;DHT22;38173;52.850;6.970;2022-07-09T14:42:49;25.70;72.90
52203;DHT22;38173;52.850;6.970;2022-07-09T14:45:15;25.20;72.10
52203;DHT22;38173;52.850;6.970;2022-07-09T14:47:41;24.60;74.20
52203;DHT22;38173;52.850;6.970;2022-07-09T14:50:09;23.80;78.20
52203;DHT22;38173;52.850;6.970;2022-07-09T14:52:34;23.20;90.50
52203;DHT22;38173;52.850;6.970;2022-07-09T14:55:04;22.60;92.90
52203;DHT22;38173;52.850;6.970;2022-07-09T14:57:30;22.40;98.30
52203;DHT22;38173;52.850;6.970;2022-07-09T14:59:56;22.30;95.50
52203;DHT22;38173;52.850;6.970;2022-07-09T15:02:24;22.10;99.90
52203;DHT22;38173;52.850;6.970;2022-07-09T15:04:49;22.00;97.80
52203;DHT22;38173;52.850;6.970;2022-07-09T15:07:15;21.90;98.00
52203;DHT22;38173;52.850;6.970;2022-07-09T15:09:41;21.70;97.70
52203;DHT22;38173;52.850;6.970;2022-07-09T15:12:07;21.90;99.90
52203;DHT22;38173;52.850;6.970;2022-07-09T15:14:32;22.00;99.10
52203;DHT22;38173;52.850;6.970;2022-07-09T15:16:58;21.70;99.90
52203;DHT22;38173;52.850;6.970;2022-07-09T15:19:24;21.30;99.90
52203;DHT22;38173;52.850;6.970;2022-07-09T15:21:49;21.10;99.90
52203;DHT22;38173;52.850;6.970;2022-07-09T15:24:16;20.80;99.90
52203;DHT22;38173;52.850;6.970;2022-07-09T15:26:42;20.70;99.90
52203;DHT22;38173;52.850;6.970;2022-07-09T15:29:07;20.60;99.90
52203;DHT22;38173;52.850;6.970;2022-07-09T15:31:35;20.50;99.90
52203;DHT22;38173;52.850;6.970;2022-07-09T15:34:01;20.40;99.90